createdAt,value
2018-11-25T00:00:30.861Z,40.27
2018-11-25T00:02:58.441Z,38.53
2018-11-25T00:05:25.948Z,42.80
2018-11-25T00:07:53.356Z,39.15
2018-11-25T00:10:20.823Z,41.00
2018-11-25T00:12:48.253Z,40.47
2018-11-25T00:15:15.919Z,39.00
2018-11-25T00:17:43.324Z,37.83
2018-11-25T00:20:11.733Z,38.70
2018-11-25T00:22:39.252Z,38.70
2018-11-25T00:25:11.917Z,38.67
2018-11-25T00:27:39.378Z,36.50
2018-11-25T00:30:16.197Z,36.37
2018-11-25T00:32:43.788Z,38.03
2018-11-25T00:35:22.466Z,36.63
2018-11-25T00:37:49.857Z,36.67
2018-11-25T00:40:17.248Z,36.03
2018-11-25T00:42:53.590Z,38.47
2018-11-25T00:45:21.009Z,39.30
2018-11-25T00:47:49.055Z,40.07
2018-11-25T00:50:16.490Z,40.63
2018-11-25T00:52:43.939Z,40.30
2018-11-25T00:55:12.575Z,40.27
2018-11-25T00:57:40.020Z,42.13
2018-11-25T01:00:11.533Z,40.83
2018-11-25T01:02:39.030Z,43.13
2018-11-25T01:05:07.310Z,43.20
2018-11-25T01:07:34.712Z,43.93
2018-11-25T01:10:02.283Z,44.80
2018-11-25T01:12:29.734Z,45.40
2018-11-25T01:14:57.285Z,46.47
2018-11-25T01:17:24.811Z,46.40
2018-11-25T01:19:52.242Z,47.00
2018-11-25T01:22:19.711Z,48.27
2018-11-25T01:24:47.163Z,48.63
2018-11-25T01:27:15.142Z,46.00
2018-11-25T01:29:42.563Z,44.03
2018-11-25T01:32:09.984Z,44.40
2018-11-25T01:34:37.591Z,43.80
2018-11-25T01:37:05.275Z,42.30
2018-11-25T01:39:32.708Z,45.70
2018-11-25T01:42:00.151Z,45.03
2018-11-25T01:44:27.608Z,43.23
2018-11-25T01:46:55.218Z,44.03
2018-11-25T01:49:22.943Z,45.97
2018-11-25T01:51:50.349Z,44.50
2018-11-25T01:54:17.902Z,41.77
2018-11-25T01:56:45.323Z,44.77
2018-11-25T01:59:12.800Z,44.50
2018-11-25T02:01:40.155Z,43.37
2018-11-25T02:04:07.574Z,47.43
2018-11-25T02:06:35.018Z,42.47
2018-11-25T02:09:02.522Z,44.30
2018-11-25T02:11:29.978Z,44.23
2018-11-25T02:13:57.412Z,43.07
2018-11-25T02:16:24.977Z,42.73
2018-11-25T02:18:52.391Z,42.93
2018-11-25T02:21:19.832Z,41.20
2018-11-25T02:23:47.288Z,43.10
2018-11-25T02:26:14.770Z,43.13
2018-11-25T02:28:42.195Z,41.10
2018-11-25T02:31:09.619Z,42.40
2018-11-25T02:33:37.164Z,42.30
2018-11-25T02:36:04.774Z,41.60
2018-11-25T02:38:32.286Z,44.60
2018-11-25T02:40:59.748Z,44.30
2018-11-25T02:43:27.166Z,46.20
2018-11-25T02:45:54.608Z,48.57
2018-11-25T02:48:22.084Z,45.50
2018-11-25T02:50:49.567Z,48.50
2018-11-25T02:53:17.015Z,47.83
2018-11-25T02:55:44.446Z,48.90
2018-11-25T02:58:11.905Z,46.63
2018-11-25T03:00:39.438Z,51.60
2018-11-25T03:03:06.837Z,48.77
2018-11-25T03:05:34.309Z,47.20
2018-11-25T03:08:01.696Z,50.23
2018-11-25T03:10:29.120Z,50.87
2018-11-25T03:12:56.519Z,51.83
2018-11-25T03:15:23.954Z,53.67
2018-11-25T03:17:51.377Z,50.90
2018-11-25T03:20:18.886Z,52.67
2018-11-25T03:22:46.360Z,54.70
2018-11-25T03:25:16.356Z,55.70
2018-11-25T03:27:43.884Z,56.67
2018-11-25T03:30:12.316Z,57.40
2018-11-25T03:32:39.801Z,56.17
2018-11-25T03:35:08.730Z,56.07
2018-11-25T03:37:36.117Z,56.97
2018-11-25T03:40:04.643Z,55.67
2018-11-25T03:42:32.179Z,54.33
2018-11-25T03:44:59.566Z,54.53
2018-11-25T03:47:26.946Z,54.27
2018-11-25T03:49:54.273Z,55.60
2018-11-25T03:52:21.705Z,56.90
2018-11-25T03:54:49.142Z,59.73
2018-11-25T03:57:17.317Z,56.03
2018-11-25T03:59:45.829Z,55.53
2018-11-25T04:02:13.204Z,55.80
2018-11-25T04:04:40.561Z,54.37
2018-11-25T04:07:07.986Z,54.83
2018-11-25T04:09:35.340Z,54.23
2018-11-25T04:12:02.759Z,56.17
2018-11-25T04:14:30.104Z,54.20
2018-11-25T04:16:57.494Z,53.50
2018-11-25T04:19:24.945Z,55.37
2018-11-25T04:21:52.346Z,57.87
2018-11-25T04:24:19.707Z,55.97
2018-11-25T04:26:47.452Z,55.57
2018-11-25T04:29:14.842Z,54.50
2018-11-25T04:31:42.242Z,53.63
2018-11-25T04:34:09.598Z,55.77
2018-11-25T04:36:37.026Z,56.00
2018-11-25T04:39:07.876Z,56.77
2018-11-25T04:41:35.287Z,54.07
2018-11-25T04:44:02.844Z,55.07
2018-11-25T04:46:30.200Z,54.83
2018-11-25T04:48:57.617Z,57.97
2018-11-25T04:51:24.960Z,55.60
2018-11-25T04:53:52.329Z,58.17
2018-11-25T04:56:19.693Z,58.63
2018-11-25T04:58:47.012Z,56.70
2018-11-25T05:01:14.515Z,56.57
2018-11-25T05:03:42.072Z,57.93
2018-11-25T05:06:09.396Z,56.37
2018-11-25T05:08:36.787Z,56.20
2018-11-25T05:11:04.280Z,56.93
2018-11-25T05:13:31.737Z,56.53
2018-11-25T05:15:59.100Z,58.10
2018-11-25T05:18:26.465Z,59.13
2018-11-25T05:20:53.838Z,57.70
2018-11-25T05:23:21.228Z,57.73
2018-11-25T05:25:48.617Z,55.70
2018-11-25T05:28:15.963Z,56.33
2018-11-25T05:30:43.285Z,57.90
2018-11-25T05:33:10.627Z,57.00
2018-11-25T05:35:38.099Z,61.90
2018-11-25T05:38:05.508Z,57.07
2018-11-25T05:40:32.908Z,58.57
2018-11-25T05:43:00.262Z,57.03
2018-11-25T05:45:27.582Z,57.23
2018-11-25T05:47:55.041Z,58.87
2018-11-25T05:50:22.381Z,58.40
2018-11-25T05:52:49.699Z,58.23
2018-11-25T05:55:17.088Z,57.20
2018-11-25T05:57:44.486Z,57.20
2018-11-25T06:00:13.174Z,59.10
2018-11-25T06:02:40.894Z,57.60
2018-11-25T06:05:08.461Z,56.37
2018-11-25T06:07:35.851Z,56.40
2018-11-25T06:10:03.346Z,55.80
2018-11-25T06:17:31.078Z,54.53
2018-11-25T06:19:58.604Z,55.57
2018-11-25T06:22:26.002Z,55.67
2018-11-25T06:24:53.380Z,54.47
2018-11-25T06:27:20.783Z,56.43
2018-11-25T06:29:48.206Z,56.17
2018-11-25T06:32:15.620Z,55.67
2018-11-25T06:34:43.298Z,55.23
2018-11-25T06:37:10.637Z,55.67
2018-11-25T06:39:38.651Z,54.17
2018-11-25T06:42:09.297Z,55.37
2018-11-25T06:44:36.739Z,52.77
2018-11-25T06:47:04.569Z,50.33
2018-11-25T06:49:35.246Z,53.47
2018-11-25T06:52:02.634Z,53.30
2018-11-25T06:54:30.032Z,53.57
2018-11-25T06:56:58.035Z,54.23
2018-11-25T06:59:25.419Z,52.27
2018-11-25T07:01:53.341Z,54.03
2018-11-25T07:04:21.633Z,52.03
2018-11-25T07:06:49.009Z,52.30
2018-11-25T07:09:16.542Z,52.57
2018-11-25T07:11:44.120Z,55.67
2018-11-25T07:14:11.625Z,52.83
2018-11-25T07:16:39.097Z,53.60
2018-11-25T07:19:07.096Z,51.37
2018-11-25T07:21:34.507Z,53.57
2018-11-25T07:24:01.928Z,54.03
2018-11-25T07:26:29.402Z,56.33
2018-11-25T07:28:56.960Z,55.57
2018-11-25T07:31:24.394Z,56.50
2018-11-25T07:33:51.825Z,55.50
2018-11-25T07:36:19.363Z,57.43
2018-11-25T07:38:46.911Z,55.27
2018-11-25T07:41:14.397Z,55.33
2018-11-25T07:43:41.987Z,54.37
2018-11-25T07:46:09.384Z,58.70
2018-11-25T07:48:36.826Z,55.80
2018-11-25T07:51:04.388Z,57.33
2018-11-25T07:53:32.009Z,57.67
2018-11-25T07:56:00.148Z,56.53
2018-11-25T07:58:27.544Z,55.70
2018-11-25T08:00:55.011Z,55.27
2018-11-25T08:03:22.453Z,55.30
2018-11-25T08:05:49.847Z,55.03
2018-11-25T08:08:17.327Z,58.40
2018-11-25T08:10:44.716Z,54.37
2018-11-25T08:13:12.249Z,52.03
2018-11-25T08:15:39.698Z,52.87
2018-11-25T08:18:07.488Z,54.43
2018-11-25T08:20:35.186Z,53.53
2018-11-25T08:23:02.775Z,54.83
2018-11-25T08:25:30.375Z,57.63
2018-11-25T08:28:01.180Z,57.10
2018-11-25T08:30:28.746Z,53.90
2018-11-25T08:32:56.388Z,58.40
2018-11-25T08:35:24.108Z,55.33
2018-11-25T08:37:51.777Z,56.37
2018-11-25T08:43:07.719Z,56.30
2018-11-25T08:45:35.290Z,55.43
2018-11-25T08:48:05.754Z,55.57
2018-11-25T08:50:33.594Z,57.30
2018-11-25T08:53:01.252Z,55.90
2018-11-25T08:55:28.932Z,56.87
2018-11-25T08:57:56.574Z,56.80
2018-11-25T09:00:29.942Z,53.63
2018-11-25T09:02:57.449Z,57.47
2018-11-25T09:05:25.086Z,55.67
2018-11-25T09:07:52.861Z,55.13
2018-11-25T09:10:21.066Z,55.23
2018-11-25T09:12:55.888Z,56.83
2018-11-25T09:15:23.821Z,55.23
2018-11-25T09:17:51.464Z,55.27
2018-11-25T09:20:20.631Z,53.40
2018-11-25T09:22:48.614Z,55.40
2018-11-25T09:25:19.342Z,55.13
2018-11-25T09:27:46.898Z,55.97
2018-11-25T09:30:16.635Z,54.70
2018-11-25T09:32:44.230Z,56.60
2018-11-25T09:35:12.699Z,56.23
2018-11-25T09:37:40.341Z,57.00
2018-11-25T09:40:11.177Z,57.07
2018-11-25T09:42:38.645Z,56.77
2018-11-25T09:45:12.057Z,56.50
2018-11-25T09:47:39.567Z,56.37
2018-11-25T09:50:09.965Z,54.07
2018-11-25T09:52:37.581Z,52.63
2018-11-25T09:55:13.384Z,56.10
2018-11-25T09:57:41.993Z,49.97
2018-11-25T10:00:13.129Z,53.93
2018-11-25T10:02:41.064Z,54.37
2018-11-25T10:05:09.860Z,55.73
2018-11-25T10:07:37.814Z,54.97
2018-11-25T10:10:22.620Z,55.73
2018-11-25T10:12:50.717Z,51.73
2018-11-25T10:15:25.530Z,55.80
2018-11-25T10:17:59.482Z,53.90
2018-11-25T10:20:23.091Z,51.50
2018-11-25T10:22:50.666Z,54.60
2018-11-25T10:25:18.249Z,51.67
2018-11-25T10:27:46.503Z,52.83
2018-11-25T10:30:21.259Z,53.33
2018-11-25T10:32:51.275Z,54.37
2018-11-25T10:35:19.145Z,53.80
2018-11-25T10:37:47.873Z,55.67
2018-11-25T10:40:18.764Z,54.10
2018-11-25T10:42:46.467Z,53.53
2018-11-25T10:45:15.424Z,54.17
2018-11-25T10:47:43.153Z,53.57
2018-11-25T10:50:21.468Z,53.03
2018-11-25T10:52:49.561Z,52.43
2018-11-25T10:55:18.081Z,53.67
2018-11-25T10:57:50.220Z,52.73
2018-11-25T11:00:25.626Z,52.80
2018-11-25T11:02:58.863Z,54.27
2018-11-25T11:05:32.301Z,52.90
2018-11-25T11:07:59.905Z,52.00
2018-11-25T11:10:27.697Z,53.40
2018-11-25T11:12:55.591Z,52.43
2018-11-25T11:15:25.081Z,52.77
2018-11-25T11:17:52.815Z,51.03
2018-11-25T11:20:22.160Z,53.23
2018-11-25T11:22:50.104Z,52.97
2018-11-25T11:25:17.735Z,52.20
2018-11-25T11:27:45.504Z,54.03
2018-11-25T11:30:13.271Z,52.77
2018-11-25T11:32:42.140Z,51.70
2018-11-25T11:35:09.913Z,52.10
2018-11-25T11:37:38.571Z,51.07
2018-11-25T11:40:10.107Z,48.57
2018-11-25T11:42:36.611Z,50.07
2018-11-25T11:45:06.409Z,49.20
2018-11-25T11:47:34.151Z,46.83
2018-11-25T11:50:02.635Z,48.37
2018-11-25T11:52:30.259Z,47.40
2018-11-25T11:54:58.085Z,48.23
2018-11-25T11:57:25.650Z,44.67
2018-11-25T11:59:53.329Z,44.20
2018-11-25T12:02:21.299Z,46.67
2018-11-25T12:04:49.116Z,45.70
2018-11-25T12:07:17.853Z,48.03
2018-11-25T12:09:45.492Z,46.87
2018-11-25T12:12:13.111Z,46.80
2018-11-25T12:14:40.835Z,46.87
2018-11-25T12:17:08.853Z,47.07
2018-11-25T12:19:36.436Z,47.27
2018-11-25T12:22:04.795Z,45.40
2018-11-25T12:24:32.362Z,47.00
2018-11-25T12:27:00.287Z,44.83
2018-11-25T12:29:27.964Z,46.33
2018-11-25T12:31:55.936Z,49.07
2018-11-25T12:34:25.681Z,54.87
2018-11-25T12:36:53.470Z,58.70
2018-11-25T12:39:28.265Z,62.83
2018-11-25T12:41:55.481Z,50.97
2018-11-25T12:44:29.038Z,51.63
2018-11-25T12:46:51.164Z,48.40
2018-11-25T12:49:18.710Z,54.67
2018-11-25T12:51:46.676Z,53.20
2018-11-25T12:54:14.456Z,52.47
2018-11-25T12:56:42.345Z,51.37
2018-11-25T12:59:09.963Z,51.57
2018-11-25T13:01:37.497Z,54.43
2018-11-25T13:04:05.867Z,49.33
2018-11-25T13:06:33.732Z,45.23
2018-11-25T13:09:01.318Z,45.27
2018-11-25T13:11:29.083Z,45.57
2018-11-25T13:13:56.858Z,43.87
2018-11-25T13:16:25.133Z,43.57
2018-11-25T13:18:52.786Z,43.97
2018-11-25T13:21:20.372Z,43.73
2018-11-25T13:23:48.334Z,45.57
2018-11-25T13:26:16.153Z,44.83
2018-11-25T13:28:46.607Z,44.00
2018-11-25T13:31:15.830Z,45.47
2018-11-25T13:33:44.106Z,44.40
2018-11-25T13:36:11.860Z,46.83
2018-11-25T13:38:39.521Z,48.83
2018-11-25T13:41:07.373Z,46.80
2018-11-25T13:43:34.927Z,48.27
2018-11-25T13:46:02.596Z,64.67
2018-11-25T13:48:30.709Z,66.93
2018-11-25T13:51:06.763Z,55.10
2018-11-25T13:53:34.536Z,50.10
2018-11-25T13:56:02.075Z,54.37
2018-11-25T13:58:29.839Z,48.37
2018-11-25T14:00:58.027Z,52.23
2018-11-25T14:03:31.570Z,50.27
2018-11-25T14:05:59.383Z,50.13
2018-11-25T14:08:27.776Z,50.00
2018-11-25T14:10:58.503Z,49.40
2018-11-25T14:13:26.048Z,51.57
2018-11-25T14:15:53.629Z,50.80
2018-11-25T14:18:21.443Z,49.00
2018-11-25T14:24:02.865Z,51.53
2018-11-25T14:26:34.726Z,49.70
2018-11-25T14:29:02.402Z,50.80
2018-11-25T14:31:30.233Z,50.87
2018-11-25T14:33:59.242Z,49.70
2018-11-25T14:36:26.809Z,51.17
2018-11-25T14:38:54.427Z,51.90
2018-11-25T14:41:22.070Z,54.40
2018-11-25T14:43:51.869Z,52.77
2018-11-25T14:46:19.554Z,52.43
2018-11-25T14:48:47.172Z,50.00
2018-11-25T14:51:14.924Z,54.13
2018-11-25T14:53:42.942Z,51.73
2018-11-25T14:56:10.596Z,50.87
2018-11-25T14:58:39.351Z,52.87
2018-11-25T15:01:07.599Z,51.60
2018-11-25T15:03:36.298Z,52.93
2018-11-25T15:06:05.096Z,51.50
2018-11-25T15:08:32.653Z,50.40
2018-11-25T15:13:55.341Z,48.63
2018-11-25T15:16:24.893Z,43.30
2018-11-25T15:18:53.619Z,43.47
2018-11-25T15:21:21.089Z,48.00
2018-11-25T15:23:48.843Z,42.00
2018-11-25T15:26:17.564Z,43.63
2018-11-25T15:28:46.010Z,41.83
2018-11-25T15:31:13.641Z,45.63
2018-11-25T15:33:41.208Z,45.43
2018-11-25T15:36:09.231Z,45.47
2018-11-25T15:38:36.952Z,45.27
2018-11-25T15:41:05.261Z,44.63
2018-11-25T15:43:33.430Z,45.20
2018-11-25T15:46:01.266Z,44.43
2018-11-25T15:48:30.155Z,42.73
2018-11-25T15:51:10.727Z,42.33
2018-11-25T15:53:39.100Z,41.97
2018-11-25T15:56:10.172Z,39.83
2018-11-25T15:58:37.969Z,42.97
2018-11-25T16:01:06.642Z,40.40
2018-11-25T16:03:42.056Z,42.83
2018-11-25T16:06:17.423Z,40.27
2018-11-25T16:08:45.073Z,41.97
2018-11-25T16:11:12.933Z,41.77
2018-11-25T16:13:41.808Z,42.63
2018-11-25T16:16:09.417Z,40.73
2018-11-25T16:18:37.023Z,41.27
2018-11-25T16:21:04.889Z,42.20
2018-11-25T16:23:32.504Z,42.50
2018-11-25T16:26:05.265Z,41.83
2018-11-25T16:28:36.658Z,42.67
2018-11-25T16:31:04.967Z,43.33
2018-11-25T16:33:32.661Z,42.53
2018-11-25T16:36:00.529Z,45.90
2018-11-25T16:38:28.266Z,42.43
2018-11-25T16:40:55.865Z,42.63
2018-11-25T16:43:23.506Z,43.67
2018-11-25T16:45:51.656Z,43.87
2018-11-25T16:48:19.313Z,43.43
2018-11-25T16:50:46.986Z,43.60
2018-11-25T16:53:14.662Z,44.40
2018-11-25T16:55:42.293Z,45.30
2018-11-25T16:58:10.858Z,53.80
2018-11-25T17:00:38.468Z,52.10
2018-11-25T17:03:14.711Z,45.03
2018-11-25T17:05:44.237Z,44.30
2018-11-25T17:08:20.091Z,43.20
2018-11-25T17:10:47.759Z,44.47
2018-11-25T17:13:16.338Z,43.73
2018-11-25T17:15:44.052Z,53.03
2018-11-25T17:18:11.923Z,46.33
2018-11-25T17:20:40.057Z,43.20
2018-11-25T17:23:08.385Z,40.77
2018-11-25T17:25:35.932Z,43.20
2018-11-25T17:28:03.560Z,41.80
2018-11-25T17:30:31.919Z,41.73
2018-11-25T17:32:59.890Z,42.60
2018-11-25T17:35:28.946Z,41.30
2018-11-25T17:37:56.724Z,40.37
2018-11-25T17:40:24.568Z,38.37
2018-11-25T17:42:52.592Z,42.47
2018-11-25T17:45:20.641Z,43.30
2018-11-25T17:47:48.876Z,40.27
2018-11-25T17:50:23.495Z,40.90
2018-11-25T17:52:53.015Z,41.33
2018-11-25T17:55:21.853Z,43.73
2018-11-25T17:57:49.430Z,42.37
2018-11-25T18:00:24.252Z,44.43
2018-11-25T18:02:52.005Z,43.53
2018-11-25T18:05:22.497Z,42.57
2018-11-25T18:07:50.118Z,43.77
2018-11-25T18:10:18.219Z,41.97
2018-11-25T18:12:46.382Z,44.03
2018-11-25T18:15:15.591Z,43.33
2018-11-25T18:17:53.699Z,45.10
2018-11-25T18:20:37.199Z,43.83
2018-11-25T18:23:05.972Z,41.00
2018-11-25T18:25:43.506Z,42.40
2018-11-25T18:28:11.237Z,42.70
2018-11-25T18:30:38.982Z,42.27
2018-11-25T18:33:07.249Z,40.50
2018-11-25T18:36:10.117Z,41.13
2018-11-25T18:41:23.691Z,39.17
2018-11-25T18:43:52.052Z,41.53
2018-11-25T18:46:19.657Z,37.00
2018-11-25T18:48:48.906Z,37.37
2018-11-25T18:51:17.579Z,37.07
2018-11-25T18:53:45.411Z,37.20
2018-11-25T18:56:13.789Z,37.70
2018-11-25T19:02:12.043Z,37.37
2018-11-25T19:04:40.657Z,36.77
2018-11-25T19:07:10.351Z,38.20
2018-11-25T19:09:38.942Z,36.50
2018-11-25T19:18:38.197Z,36.17
2018-11-25T19:21:06.795Z,36.40
2018-11-25T19:23:35.387Z,37.57
2018-11-25T19:26:04.032Z,38.50
2018-11-25T19:28:54.824Z,35.00
2018-11-25T19:31:22.964Z,36.80
2018-11-25T19:33:51.712Z,37.80
2018-11-25T19:36:20.095Z,37.47
2018-11-25T19:38:49.160Z,38.63
2018-11-25T19:41:17.625Z,37.73
2018-11-25T19:43:46.191Z,37.87
2018-11-25T19:46:15.191Z,39.13
2018-11-25T19:48:44.066Z,35.50
2018-11-25T19:51:17.484Z,35.07
2018-11-25T19:53:41.415Z,34.17
2018-11-25T19:56:09.915Z,32.17
2018-11-25T19:58:39.508Z,33.83
2018-11-25T20:01:08.177Z,33.17
2018-11-25T20:03:49.167Z,32.70
2018-11-25T20:06:42.148Z,29.43
2018-11-25T20:09:12.792Z,30.97
2018-11-25T20:11:40.939Z,27.80
2018-11-25T20:14:09.402Z,25.63
2018-11-25T20:16:44.043Z,26.87
2018-11-25T20:19:12.652Z,25.37
2018-11-25T20:21:46.216Z,23.90
2018-11-25T20:24:14.401Z,26.40
2018-11-25T20:26:47.985Z,24.70
2018-11-25T20:29:17.083Z,27.50
2018-11-25T20:31:45.653Z,26.53
2018-11-25T20:34:14.145Z,25.10
2018-11-25T20:36:42.410Z,26.37
2018-11-25T20:39:16.231Z,25.60
2018-11-25T20:41:44.692Z,25.20
2018-11-25T20:44:43.568Z,24.80
2018-11-25T20:47:12.131Z,23.37
2018-11-25T20:49:40.497Z,23.07
2018-11-25T20:52:14.550Z,22.73
2018-11-25T20:54:42.729Z,23.73
2018-11-25T20:57:10.996Z,21.83
2018-11-25T20:59:39.218Z,22.83
2018-11-25T21:02:07.597Z,22.53
2018-11-25T21:04:35.905Z,22.90
2018-11-25T21:07:04.341Z,22.50
2018-11-25T21:09:32.346Z,23.73
2018-11-25T21:12:00.450Z,22.63
2018-11-25T21:14:28.554Z,23.33
2018-11-25T21:16:56.882Z,22.40
2018-11-25T21:19:25.054Z,20.57
2018-11-25T21:21:53.593Z,22.20
2018-11-25T21:24:21.610Z,21.50
2018-11-25T21:31:56.252Z,21.93
2018-11-25T21:34:23.833Z,21.73
2018-11-25T21:36:51.743Z,21.13
2018-11-25T21:39:19.462Z,21.97
2018-11-25T21:41:46.975Z,23.30
2018-11-25T21:44:14.467Z,22.57
2018-11-25T21:46:42.024Z,21.20
2018-11-25T21:49:09.629Z,22.67
2018-11-25T21:51:37.176Z,21.60
2018-11-25T21:54:04.689Z,20.43
2018-11-25T21:56:32.257Z,22.57
2018-11-25T21:58:59.742Z,20.07
2018-11-25T22:01:27.295Z,20.57
2018-11-25T22:03:54.845Z,20.07
2018-11-25T22:06:22.391Z,19.93
2018-11-25T22:08:50.082Z,20.07
2018-11-25T22:11:17.612Z,21.30
2018-11-25T22:13:45.055Z,20.50
2018-11-25T22:16:12.587Z,20.67
2018-11-25T22:18:40.006Z,19.83
2018-11-25T22:21:07.581Z,21.63
2018-11-25T22:23:35.136Z,20.30
2018-11-25T22:26:02.798Z,19.97
2018-11-25T22:28:30.420Z,19.77
2018-11-25T22:30:57.915Z,20.37
2018-11-25T22:33:25.435Z,20.97
2018-11-25T22:35:52.951Z,20.30
2018-11-25T22:38:20.660Z,21.80
2018-11-25T22:40:48.185Z,22.03
2018-11-25T22:43:15.692Z,21.20
2018-11-25T22:45:43.158Z,22.57
2018-11-25T22:48:10.619Z,21.23
2018-11-25T22:50:38.162Z,21.40
2018-11-25T22:53:06.018Z,21.57
2018-11-25T22:55:33.416Z,21.87
2018-11-25T22:58:00.971Z,21.30
2018-11-25T23:00:30.181Z,22.47
2018-11-25T23:02:57.739Z,23.10
2018-11-25T23:05:36.567Z,23.33
2018-11-25T23:08:04.118Z,22.27
2018-11-25T23:10:31.676Z,23.03
2018-11-25T23:12:59.174Z,22.30
2018-11-25T23:15:26.666Z,22.37
2018-11-25T23:17:54.300Z,22.73
2018-11-25T23:20:21.881Z,21.80
2018-11-25T23:22:49.266Z,22.53
2018-11-25T23:25:16.913Z,22.50
2018-11-25T23:27:44.345Z,21.60
2018-11-25T23:30:11.961Z,23.93
2018-11-25T23:32:39.545Z,24.10
2018-11-25T23:35:23.802Z,22.20
2018-11-25T23:37:51.316Z,23.50
2018-11-25T23:40:18.979Z,22.13
2018-11-25T23:42:46.556Z,23.10
2018-11-25T23:45:14.928Z,22.60
2018-11-25T23:47:42.491Z,22.00
2018-11-25T23:50:10.825Z,22.73
2018-11-25T23:52:38.598Z,23.93
2018-11-25T23:55:07.657Z,24.30
2018-11-25T23:57:35.228Z,23.63
